createdAt,value
2023-04-15T00:00:46.433Z,98735.72
2023-04-15T00:03:33.720Z,98735.16
2023-04-15T00:06:18.908Z,98728.25
2023-04-15T00:09:03.615Z,98725.13
2023-04-15T00:11:49.823Z,98739.75
2023-04-15T00:14:38.112Z,98741.28
2023-04-15T00:17:22.628Z,98743.88
2023-04-15T00:20:07.858Z,98749.56
2023-04-15T00:22:52.976Z,98742.88
2023-04-15T00:25:37.987Z,98743.66
2023-04-15T00:28:22.849Z,98745.19
2023-04-15T00:31:07.736Z,98740.84
2023-04-15T00:33:52.658Z,98740.84
2023-04-15T00:36:37.271Z,98746.78
2023-04-15T00:39:22.129Z,98747.78
2023-04-15T00:42:07.093Z,98743.41
2023-04-15T00:44:52.014Z,98733.59
2023-04-15T00:47:38.622Z,98740.53
2023-04-15T00:50:23.484Z,98748.25
2023-04-15T00:53:08.289Z,98739.31
2023-04-15T00:55:53.623Z,98739.31
2023-04-15T00:58:38.324Z,98746.00
2023-04-15T01:01:24.357Z,98746.78
2023-04-15T01:04:10.997Z,98736.16
2023-04-15T01:06:55.742Z,98733.59
2023-04-15T01:09:40.882Z,98740.53
2023-04-15T01:12:26.906Z,98741.53
2023-04-15T01:15:11.587Z,98739.19
2023-04-15T01:17:57.099Z,98744.66
2023-04-15T01:20:41.799Z,98745.88
2023-04-15T01:23:27.372Z,98751.00
2023-04-15T01:26:12.925Z,98749.47
2023-04-15T01:28:57.832Z,98757.38
2023-04-15T01:31:53.189Z,98751.78
2023-04-15T01:34:38.113Z,98748.25
2023-04-15T01:37:23.647Z,98753.38
2023-04-15T01:40:09.362Z,98748.69
2023-04-15T01:42:54.074Z,98751.25
2023-04-15T01:45:38.946Z,98753.56
2023-04-15T01:48:23.772Z,98751.78
2023-04-15T01:51:08.252Z,98759.50
2023-04-15T01:53:53.167Z,98750.81
2023-04-15T01:56:38.291Z,98758.50
2023-04-15T01:59:23.247Z,98744.44
2023-04-15T02:02:45.858Z,98753.38
2023-04-15T02:05:31.157Z,98746.66
2023-04-15T02:08:16.622Z,98756.38
2023-04-15T02:11:01.754Z,98758.34
2023-04-15T02:13:46.685Z,98764.72
2023-04-15T02:16:32.395Z,98760.59
2023-04-15T02:19:17.738Z,98763.97
2023-04-15T02:22:02.935Z,98766.28
2023-04-15T02:24:48.339Z,98758.03
2023-04-15T02:27:33.310Z,98757.59
2023-04-15T02:30:18.382Z,98740.88
2023-04-15T02:33:03.369Z,98751.22
2023-04-15T02:35:48.419Z,98745.97
2023-04-15T02:38:33.250Z,98747.19
2023-04-15T02:41:20.884Z,98746.09
2023-04-15T02:44:06.586Z,98747.63
2023-04-15T02:46:53.070Z,98746.53
2023-04-15T02:49:39.729Z,98754.09
2023-04-15T02:52:24.737Z,98753.97
2023-04-15T02:55:09.825Z,98754.41
2023-04-15T02:57:55.369Z,98763.88
2023-04-15T03:00:40.093Z,98761.31
2023-04-15T03:03:26.260Z,98752.94
2023-04-15T03:06:11.079Z,98749.59
2023-04-15T03:08:56.383Z,98758.84
2023-04-15T03:11:41.780Z,98754.72
2023-04-15T03:14:27.745Z,98757.16
2023-04-15T03:17:12.668Z,98765.28
2023-04-15T03:19:57.823Z,98760.72
2023-04-15T03:22:42.797Z,98766.19
2023-04-15T03:25:27.896Z,98772.88
2023-04-15T03:28:12.413Z,98763.41
2023-04-15T03:30:57.897Z,98758.16
2023-04-15T03:33:42.906Z,98770.78
2023-04-15T03:36:31.504Z,98767.63
2023-04-15T03:39:16.068Z,98768.19
2023-04-15T03:42:01.376Z,98775.66
2023-04-15T03:44:45.917Z,98778.22
2023-04-15T03:47:31.501Z,98776.47
2023-04-15T03:50:16.720Z,98785.94
2023-04-15T03:53:01.526Z,98790.50
2023-04-15T03:55:46.026Z,98785.13
2023-04-15T03:58:30.466Z,98785.13
2023-04-15T04:01:15.951Z,98785.13
2023-04-15T04:04:01.061Z,98793.97
2023-04-15T04:06:46.011Z,98782.56
2023-04-15T04:09:31.091Z,98790.19
2023-04-15T04:12:15.991Z,98792.53
2023-04-15T04:15:01.109Z,98791.19
2023-04-15T04:17:45.810Z,98793.66
2023-04-15T04:20:33.660Z,98790.75
2023-04-15T04:23:18.520Z,98791.66
2023-04-15T04:26:03.692Z,98782.31
2023-04-15T04:28:48.615Z,98795.16
2023-04-15T04:31:33.649Z,98790.22
2023-04-15T04:34:18.573Z,98795.34
2023-04-15T04:37:03.730Z,98791.66
2023-04-15T04:39:48.364Z,98795.66
2023-04-15T04:42:33.717Z,98798.44
2023-04-15T04:45:19.128Z,98783.50
2023-04-15T04:48:06.374Z,98782.81
2023-04-15T04:50:51.629Z,98794.75
2023-04-15T04:53:37.162Z,98792.75
2023-04-15T04:56:21.741Z,98777.94
2023-04-15T04:59:07.072Z,98787.41
2023-04-15T05:01:52.202Z,98784.84
2023-04-15T05:04:37.246Z,98792.75
2023-04-15T05:07:21.833Z,98780.69
2023-04-15T05:10:06.902Z,98775.09
2023-04-15T05:12:52.026Z,98769.31
2023-04-15T05:15:39.110Z,98768.75
2023-04-15T05:18:23.942Z,98764.19
2023-04-15T05:21:09.385Z,98758.41
2023-04-15T05:23:54.447Z,98766.44
2023-04-15T05:26:39.360Z,98765.34
2023-04-15T05:29:24.567Z,98766.16
2023-04-15T05:32:09.416Z,98760.38
2023-04-15T05:34:54.239Z,98783.72
2023-04-15T05:37:39.244Z,98785.41
2023-04-15T05:40:24.326Z,98778.25
2023-04-15T05:43:09.163Z,98766.09
2023-04-15T05:45:54.211Z,98765.19
2023-04-15T05:48:39.158Z,98771.94
2023-04-15T05:51:24.182Z,98763.75
2023-04-15T05:54:09.071Z,98778.50
2023-04-15T05:56:54.294Z,98771.94
2023-04-15T05:59:39.025Z,98774.84
2023-04-15T06:02:24.081Z,98776.84
2023-04-15T06:05:10.207Z,98781.63
2023-04-15T06:07:54.860Z,98763.72
2023-04-15T06:10:40.206Z,98773.44
2023-04-15T06:13:25.192Z,98765.59
2023-04-15T06:16:09.985Z,98779.94
2023-04-15T06:18:54.372Z,98784.75
2023-04-15T06:21:38.995Z,98796.69
2023-04-15T06:24:24.039Z,98788.91
2023-04-15T06:27:08.943Z,98796.94
2023-04-15T06:29:53.991Z,98797.13
2023-04-15T06:32:39.002Z,98796.66
2023-04-15T06:35:23.946Z,98799.91
2023-04-15T06:38:08.928Z,98801.75
2023-04-15T06:40:53.801Z,98808.59
2023-04-15T06:43:39.289Z,98803.44
2023-04-15T06:46:23.679Z,98819.13
2023-04-15T06:49:08.954Z,98815.88
2023-04-15T06:51:53.690Z,98824.44
2023-04-15T06:54:38.680Z,98823.28
2023-04-15T06:57:23.209Z,98836.47
2023-04-15T07:00:10.551Z,98832.91
2023-04-15T07:02:55.946Z,98838.97
2023-04-15T07:05:40.863Z,98840.16
2023-04-15T07:08:25.874Z,98848.06
2023-04-15T07:11:10.756Z,98844.66
2023-04-15T07:13:57.056Z,98849.13
2023-04-15T07:16:41.694Z,98851.25
2023-04-15T07:19:26.572Z,98854.59
2023-04-15T07:22:12.307Z,98853.81
2023-04-15T07:24:57.133Z,98861.38
2023-04-15T07:27:42.283Z,98874.19
2023-04-15T07:30:28.269Z,98872.06
2023-04-15T07:33:13.204Z,98870.16
2023-04-15T07:35:58.177Z,98865.50
2023-04-15T07:38:43.109Z,98869.13
2023-04-15T07:41:28.481Z,98864.72
2023-04-15T07:44:13.066Z,98885.16
2023-04-15T07:46:58.055Z,98874.47
2023-04-15T07:49:43.748Z,98875.13
2023-04-15T07:52:28.308Z,98875.97
2023-04-15T07:55:13.256Z,98866.78
2023-04-15T07:57:58.238Z,98882.41
2023-04-15T08:00:43.352Z,98882.41
2023-04-15T08:03:28.408Z,98887.31
2023-04-15T08:06:13.818Z,98886.75
2023-04-15T08:08:59.594Z,98892.72
2023-04-15T08:11:44.838Z,98875.41
2023-04-15T08:14:30.336Z,98887.75
2023-04-15T08:17:15.195Z,98882.00
2023-04-15T08:20:00.406Z,98884.41
2023-04-15T08:22:47.274Z,98880.53
2023-04-15T08:25:31.963Z,98888.22
2023-04-15T08:28:19.312Z,98879.56
2023-04-15T08:31:04.043Z,98883.88
2023-04-15T08:33:51.475Z,98902.75
2023-04-15T08:36:36.320Z,98895.28
2023-04-15T08:39:21.552Z,98903.84
2023-04-15T08:42:15.884Z,98900.19
2023-04-15T08:45:03.520Z,98897.06
2023-04-15T08:47:55.778Z,98893.50
2023-04-15T08:50:41.481Z,98884.63
2023-04-15T08:53:29.110Z,98877.50
2023-04-15T08:56:16.106Z,98881.59
2023-04-15T08:59:01.894Z,98890.84
2023-04-15T09:01:47.734Z,98882.78
2023-04-15T09:04:33.357Z,98878.56
2023-04-15T09:07:18.219Z,98877.94
2023-04-15T09:10:04.271Z,98879.81
2023-04-15T09:12:49.155Z,98881.09
2023-04-15T09:15:37.781Z,98881.09
2023-04-15T09:18:31.305Z,98891.72
2023-04-15T09:21:17.200Z,98890.00
2023-04-15T09:24:03.345Z,98898.78
2023-04-15T09:26:52.255Z,98887.53
2023-04-15T09:29:37.174Z,98893.13
2023-04-15T09:32:24.309Z,98890.78
2023-04-15T09:35:12.598Z,98886.44
2023-04-15T09:38:06.671Z,98886.19
2023-04-15T09:40:51.685Z,98880.81
2023-04-15T09:43:38.835Z,98886.84
2023-04-15T09:46:41.665Z,98864.38
2023-04-15T09:49:26.863Z,98874.47
2023-04-15T09:52:13.504Z,98869.50
2023-04-15T09:54:59.581Z,98869.41
2023-04-15T09:57:46.501Z,98862.59
2023-04-15T10:00:32.460Z,98863.66
2023-04-15T10:03:25.275Z,98854.53
2023-04-15T10:06:10.781Z,98878.75
2023-04-15T10:08:57.278Z,98871.72
2023-04-15T10:11:42.515Z,98862.75
2023-04-15T10:14:32.281Z,98873.72
2023-04-15T10:17:19.709Z,98877.19
2023-04-15T10:20:05.638Z,98871.13
2023-04-15T10:22:51.804Z,98881.22
2023-04-15T10:25:37.317Z,98897.78
2023-04-15T10:28:22.411Z,98892.50
2023-04-15T10:31:07.948Z,98899.03
2023-04-15T10:33:53.003Z,98904.75
2023-04-15T10:36:37.754Z,98918.34
2023-04-15T10:39:37.588Z,98919.94
2023-04-15T10:42:22.535Z,98904.00
2023-04-15T10:45:17.261Z,98916.63
2023-04-15T10:48:04.311Z,98909.72
2023-04-15T10:51:01.864Z,98902.28
2023-04-15T10:53:46.650Z,98902.50
2023-04-15T10:56:31.738Z,98910.81
2023-04-15T10:59:17.128Z,98900.44
2023-04-15T11:02:04.238Z,98900.66
2023-04-15T11:04:59.275Z,98915.44
2023-04-15T11:07:44.211Z,98905.63
2023-04-15T11:10:28.982Z,98919.41
2023-04-15T11:13:21.221Z,98919.41
2023-04-15T11:16:06.812Z,98920.00
2023-04-15T11:18:55.598Z,98915.84
2023-04-15T11:21:40.706Z,98911.31
2023-04-15T11:24:28.068Z,98911.31
2023-04-15T11:27:23.109Z,98915.22
2023-04-15T11:30:28.418Z,98924.41
2023-04-15T11:33:13.654Z,98934.50
2023-04-15T11:35:58.499Z,98929.19
2023-04-15T11:38:45.977Z,98930.41
2023-04-15T11:41:31.214Z,98936.72
2023-04-15T11:44:19.540Z,98919.19
2023-04-15T11:47:22.430Z,98928.41
2023-04-15T11:50:18.419Z,98918.41
2023-04-15T11:53:08.173Z,98926.88
2023-04-15T11:55:53.472Z,98925.13
2023-04-15T11:58:38.897Z,98917.78
2023-04-15T12:01:35.514Z,98922.69
2023-04-15T12:04:25.094Z,98925.84
2023-04-15T12:07:11.995Z,98925.03
2023-04-15T12:09:57.318Z,98927.78
2023-04-15T12:12:42.180Z,98930.16
2023-04-15T12:15:27.287Z,98922.47
2023-04-15T12:18:19.232Z,98927.78
2023-04-15T12:21:10.149Z,98935.28
2023-04-15T12:23:55.923Z,98935.28
2023-04-15T12:26:52.788Z,98940.81
2023-04-15T12:29:39.248Z,98935.13
2023-04-15T12:32:24.058Z,98935.91
2023-04-15T12:35:09.105Z,98932.41
2023-04-15T12:37:53.947Z,98940.66
2023-04-15T12:40:39.007Z,98944.97
2023-04-15T12:43:23.577Z,98933.16
2023-04-15T12:46:09.581Z,98939.06
2023-04-15T12:48:54.719Z,98938.69
2023-04-15T12:51:40.332Z,98938.91
2023-04-15T12:54:26.483Z,98939.47
2023-04-15T12:57:11.751Z,98928.84
2023-04-15T12:59:56.932Z,98939.19
2023-04-15T13:02:44.151Z,98942.13
2023-04-15T13:05:29.574Z,98941.59
2023-04-15T13:08:15.005Z,98947.72
2023-04-15T13:11:00.400Z,98955.63
2023-04-15T13:13:45.072Z,98958.78
2023-04-15T13:16:31.491Z,98955.44
2023-04-15T13:19:16.619Z,98939.72
2023-04-15T13:22:01.824Z,98952.03
2023-04-15T13:24:46.804Z,98937.69
2023-04-15T13:27:31.755Z,98940.44
2023-04-15T13:30:16.760Z,98944.00
2023-04-15T13:33:01.661Z,98940.47
2023-04-15T13:35:46.568Z,98936.69
2023-04-15T13:38:32.324Z,98940.03
2023-04-15T13:41:17.720Z,98947.53
2023-04-15T13:44:02.946Z,98947.38
2023-04-15T13:46:48.141Z,98951.50
2023-04-15T13:49:32.916Z,98957.25
2023-04-15T13:52:17.886Z,98955.31
2023-04-15T13:55:18.254Z,98963.78
2023-04-15T13:58:04.951Z,98970.22
2023-04-15T14:00:50.017Z,98974.94
2023-04-15T14:03:35.847Z,98974.34
2023-04-15T14:06:21.438Z,98954.13
2023-04-15T14:09:06.425Z,98953.47
2023-04-15T14:11:51.956Z,98943.63
2023-04-15T14:14:36.927Z,98947.63
2023-04-15T14:17:21.874Z,98958.63
2023-04-15T14:20:07.935Z,98955.72
2023-04-15T14:22:52.625Z,98955.75
2023-04-15T14:25:38.688Z,98954.56
2023-04-15T14:28:24.378Z,98958.50
2023-04-15T14:31:09.269Z,98960.50
2023-04-15T14:33:54.353Z,98937.28
2023-04-15T14:36:40.343Z,98971.88
2023-04-15T14:39:26.663Z,98967.16
2023-04-15T14:42:11.157Z,98968.72
2023-04-15T14:44:56.276Z,98964.41
2023-04-15T14:47:41.390Z,98963.03
2023-04-15T14:50:26.164Z,98957.13
2023-04-15T14:53:11.151Z,98961.06
2023-04-15T14:55:56.672Z,98959.28
2023-04-15T14:58:41.729Z,98958.28
2023-04-15T15:01:26.806Z,98964.00
2023-04-15T15:04:12.409Z,98966.56
2023-04-15T15:06:57.086Z,98961.28
2023-04-15T15:09:42.097Z,98964.63
2023-04-15T15:12:27.247Z,98961.06
2023-04-15T15:15:25.076Z,98974.41
2023-04-15T15:18:13.585Z,98976.78
2023-04-15T15:20:58.612Z,98975.22
2023-04-15T15:23:44.986Z,98982.09
2023-04-15T15:26:29.551Z,98981.13
2023-04-15T15:29:14.528Z,98984.84
2023-04-15T15:31:59.333Z,98981.50
2023-04-15T15:34:44.556Z,98995.06
2023-04-15T15:37:30.096Z,98986.03
2023-04-15T15:40:15.262Z,98989.19
2023-04-15T15:42:59.713Z,98978.19
2023-04-15T15:45:44.205Z,98982.13
2023-04-15T15:48:29.135Z,98992.72
2023-04-15T15:51:14.181Z,98995.50
2023-04-15T15:53:58.556Z,98996.06
2023-04-15T15:56:43.656Z,98977.00
2023-04-15T15:59:28.490Z,98990.78
2023-04-15T16:02:13.787Z,98982.13
2023-04-15T16:04:58.568Z,98962.28
2023-04-15T16:07:43.526Z,98959.53
2023-04-15T16:10:28.432Z,98953.63
2023-04-15T16:13:13.555Z,98961.50
2023-04-15T16:15:58.571Z,98955.59
2023-04-15T16:18:43.405Z,98946.97
2023-04-15T16:21:28.513Z,98947.75
2023-04-15T16:24:13.215Z,98963.28
2023-04-15T16:26:58.676Z,98968.56
2023-04-15T16:29:43.643Z,98962.69
2023-04-15T16:32:28.376Z,98954.63
2023-04-15T16:35:15.630Z,98954.63
2023-04-15T16:38:00.028Z,98967.97
2023-04-15T16:40:45.509Z,98964.66
2023-04-15T16:43:30.101Z,98981.94
2023-04-15T16:46:15.204Z,98969.56
2023-04-15T16:49:00.782Z,98981.56
2023-04-15T16:51:45.299Z,98984.47
2023-04-15T16:54:30.467Z,98984.47
2023-04-15T16:57:15.239Z,98989.59
2023-04-15T17:00:00.292Z,98989.81
2023-04-15T17:02:45.487Z,98990.41
2023-04-15T17:05:30.843Z,99002.16
2023-04-15T17:08:15.457Z,99017.47
2023-04-15T17:11:00.340Z,99020.25
2023-04-15T17:13:46.297Z,99023.59
2023-04-15T17:16:31.171Z,99036.53
2023-04-15T17:19:16.323Z,99030.84
2023-04-15T17:22:01.658Z,99039.88
2023-04-15T17:24:46.851Z,99040.28
2023-04-15T17:27:31.749Z,99031.63
2023-04-15T17:30:16.841Z,99043.03
2023-04-15T17:33:02.023Z,99052.66
2023-04-15T17:35:46.723Z,99032.41
2023-04-15T17:38:31.837Z,99027.72
2023-04-15T17:41:16.497Z,99030.66
2023-04-15T17:44:01.540Z,99039.47
2023-04-15T17:46:46.774Z,99041.66
2023-04-15T17:49:33.443Z,99034.16
2023-04-15T17:52:18.106Z,99046.56
2023-04-15T17:55:03.339Z,99052.06
2023-04-15T17:57:48.371Z,99049.50
2023-04-15T18:00:33.254Z,99052.06
2023-04-15T18:03:18.476Z,99044.41
2023-04-15T18:06:03.441Z,99057.97
2023-04-15T18:08:48.408Z,99068.19
2023-04-15T18:11:33.198Z,99067.81
2023-04-15T18:14:32.903Z,99059.53
2023-04-15T18:17:19.759Z,99069.56
2023-04-15T18:20:04.900Z,99071.91
2023-04-15T18:22:50.793Z,99081.94
2023-04-15T18:25:37.521Z,99082.31
2023-04-15T18:28:22.415Z,99079.59
2023-04-15T18:31:07.259Z,99087.84
2023-04-15T18:33:52.287Z,99092.56
2023-04-15T18:36:37.496Z,99089.00
2023-04-15T18:39:22.568Z,99095.31
2023-04-15T18:42:07.276Z,99096.13
2023-04-15T18:44:53.156Z,99115.00
2023-04-15T18:47:38.193Z,99103.19
2023-04-15T18:50:23.180Z,99111.03
2023-04-15T18:53:08.131Z,99113.03
2023-04-15T18:55:53.327Z,99123.03
2023-04-15T18:59:26.933Z,99115.56
2023-04-15T19:01:43.105Z,99119.69
2023-04-15T19:04:28.615Z,99118.50
2023-04-15T19:07:14.372Z,99099.88
2023-04-15T19:09:59.588Z,99102.78
2023-04-15T19:12:44.287Z,99094.34
2023-04-15T19:15:29.684Z,99085.50
2023-04-15T19:18:15.173Z,99082.75
2023-04-15T19:21:00.022Z,99087.84
2023-04-15T19:23:46.836Z,99091.03
2023-04-15T19:26:31.346Z,99090.03
2023-04-15T19:29:16.994Z,99097.13
2023-04-15T19:32:01.784Z,99086.69
2023-04-15T19:34:47.639Z,99081.59
2023-04-15T19:37:32.588Z,99095.53
2023-04-15T19:40:17.666Z,99094.56
2023-04-15T19:43:02.675Z,99097.50
2023-04-15T19:45:51.333Z,99092.41
2023-04-15T19:48:36.243Z,99079.81
2023-04-15T19:51:21.405Z,99103.38
2023-04-15T19:54:06.055Z,99101.63
2023-04-15T19:56:51.130Z,99094.16
2023-04-15T19:59:37.124Z,99093.16
2023-04-15T20:02:22.052Z,99104.75
2023-04-15T20:05:09.184Z,99104.59
2023-04-15T20:07:53.906Z,99100.06
2023-04-15T20:10:38.753Z,99086.88
2023-04-15T20:13:23.550Z,99091.81
2023-04-15T20:16:09.013Z,99105.97
2023-04-15T20:18:54.081Z,99110.09
2023-04-15T20:21:39.197Z,99109.91
2023-04-15T20:24:24.094Z,99108.91
2023-04-15T20:27:09.132Z,99111.66
2023-04-15T20:29:54.380Z,99106.16
2023-04-15T20:32:39.059Z,99116.16
2023-04-15T20:35:27.475Z,99116.38
2023-04-15T20:38:14.737Z,99119.16
2023-04-15T20:40:59.669Z,99128.56
2023-04-15T20:43:44.790Z,99136.63
2023-04-15T20:46:30.403Z,99139.19
2023-04-15T20:49:17.621Z,99131.94
2023-04-15T20:52:03.249Z,99137.41
2023-04-15T20:54:47.801Z,99138.41
2023-04-15T20:57:32.902Z,99140.75
2023-04-15T21:00:17.733Z,99152.38
2023-04-15T21:03:03.431Z,99158.06
2023-04-15T21:05:48.199Z,99157.88
2023-04-15T21:08:33.116Z,99164.56
2023-04-15T21:11:36.568Z,99164.75
2023-04-15T21:14:23.395Z,99162.78
2023-04-15T21:17:10.860Z,99164.56
2023-04-15T21:19:55.965Z,99173.00
2023-04-15T21:22:40.931Z,99167.91
2023-04-15T21:25:25.727Z,99166.94
2023-04-15T21:28:10.641Z,99175.19
2023-04-15T21:30:55.672Z,99178.31
2023-04-15T21:33:40.543Z,99170.66
2023-04-15T21:36:26.321Z,99168.31
2023-04-15T21:39:11.261Z,99179.31
2023-04-15T21:41:57.283Z,99181.69
2023-04-15T21:44:41.815Z,99185.03
2023-04-15T21:47:26.325Z,99194.47
2023-04-15T21:50:11.383Z,99188.56
2023-04-15T21:52:56.189Z,99188.56
2023-04-15T21:55:40.596Z,99192.69
2023-04-15T21:58:25.824Z,99198.41
2023-04-15T22:01:11.006Z,99213.72
2023-04-15T22:03:55.796Z,99219.44
2023-04-15T22:06:40.526Z,99230.28
2023-04-15T22:09:25.732Z,99220.06
2023-04-15T22:12:10.850Z,99224.16
2023-04-15T22:14:55.895Z,99224.97
2023-04-15T22:17:41.022Z,99224.38
2023-04-15T22:20:26.013Z,99227.50
2023-04-15T22:23:10.882Z,99232.03
2023-04-15T22:25:56.031Z,99226.53
2023-04-15T22:28:41.263Z,99226.34
2023-04-15T22:31:25.916Z,99226.72
2023-04-15T22:34:11.073Z,99224.16
2023-04-15T22:36:55.796Z,99221.00
2023-04-15T22:39:40.779Z,99224.94
2023-04-15T22:42:25.777Z,99226.13
2023-04-15T22:45:10.938Z,99227.91
2023-04-15T22:47:55.823Z,99233.19
2023-04-15T22:50:40.893Z,99241.06
2023-04-15T22:53:25.802Z,99248.53
2023-04-15T22:56:10.552Z,99250.91
2023-04-15T22:58:55.409Z,99235.38
2023-04-15T23:01:40.483Z,99247.34
2023-04-15T23:04:27.838Z,99249.91
2023-04-15T23:07:13.358Z,99250.72
2023-04-15T23:10:00.507Z,99246.56
2023-04-15T23:12:46.184Z,99246.19
2023-04-15T23:15:31.215Z,99247.19
2023-04-15T23:18:15.627Z,99256.41
2023-04-15T23:21:02.387Z,99257.19
2023-04-15T23:23:47.234Z,99260.56
2023-04-15T23:26:32.352Z,99257.78
2023-04-15T23:29:17.273Z,99245.22
2023-04-15T23:32:01.919Z,99253.84
2023-04-15T23:34:47.048Z,99264.88
2023-04-15T23:37:31.968Z,99265.09
2023-04-15T23:40:17.220Z,99270.38
2023-04-15T23:43:01.875Z,99269.78
2023-04-15T23:45:46.717Z,99273.13
2023-04-15T23:48:32.067Z,99275.69
2023-04-15T23:51:16.653Z,99273.72
2023-04-15T23:54:01.633Z,99268.59
2023-04-15T23:56:46.452Z,99269.81
2023-04-15T23:59:31.331Z,99267.44
